Etusivu
METAR-TAF:

METAR-TAF

Lentoasemat :

Smithers, Brittiläinen Kolumbia, Kanada

Leveyspiiri: 54-49N, Pituuspiiri: 127-11W, korkeus merenpinnasta: 523 m

Tämänhetkinen sää

Tämä raportti tehtiin 51 minuuttia sitten, kello 15.00 UTC
Tuuli 2 kn kaakosta
Lämpötila 6°C
Kosteus 87%
Ilmanpaine 1017 hPa
Näkyvyys: 40.2 km
Hajanaisia pilviä 25000 ft:n korkeudessa

METAR: CYYD 161500Z 14002KT 25SM SCT250 06/04 A3004 RMK CI3 FU SLP180

Aika: 08:51 (15:51 UTC)

Sääennuste

Tämä raportti tehtiin 2 tuntia ja 13 minuuttia sitten, kello 13.38 UTC
Ennuste voimassa 16. päivästä klo 14 UTC - 17. päivään klo 02 UTC
Tuuli 2 kn eri suunnista
Näkyvyys: 10 km
Muutamia pilviä 25000 ft:n korkeudessa
Tulossa
16. päivästä klo 18 UTC - 16. päivään klo 20 UTC
Tuuli 8 kn pohjoisen/luoteesta

TAF: CYYD 161338Z 1614/1702 VRB02KT P6SM FEW250 BECMG 1618/1620 33008KT RMK FCST BASED ON AUTO OBS. NXT FCST BY 161900Z

Säähavainnot ja -ennusteet yli 4000 lentoasemalta (METAR- ja TAF-raportit).

Käytössä olevat sääasemat on merkitty karttaan keltaisilla ja punaisilla pisteillä.

Aseta hiiri pisteen päälle nähdäksesi sääaseman nimen.

Klikkaa sitten nähdäksesi säähavainnot ja -ennusteet.

Kartan vaihtaminen: klikkaa mustalla rastilla varustettuja vihreitä pisteitä, niin voit zoomata sisään; viivalla varustettua vihreää pistettä, niin voit zoomata ulos tai vihreitä nuolia, niin pääset viereisille kartoille.


METAR-TAF: